createdAt,value
2022-08-30T00:02:17.404Z,2.85
2022-08-30T00:04:43.963Z,3.10
2022-08-30T00:07:10.698Z,2.90
2022-08-30T00:09:37.202Z,3.22
2022-08-30T00:12:04.478Z,2.90
2022-08-30T00:14:31.007Z,3.25
2022-08-30T00:16:57.455Z,3.20
2022-08-30T00:19:24.895Z,3.33
2022-08-30T00:21:51.388Z,3.22
2022-08-30T00:24:17.953Z,3.30
2022-08-30T00:26:44.442Z,3.25
2022-08-30T00:29:10.961Z,3.42
2022-08-30T00:31:37.442Z,3.45
2022-08-30T00:34:05.149Z,2.90
2022-08-30T00:36:31.601Z,3.00
2022-08-30T00:38:58.075Z,3.60
2022-08-30T00:41:24.624Z,3.42
2022-08-30T00:43:52.255Z,3.50
2022-08-30T00:46:18.778Z,3.05
2022-08-30T00:48:47.721Z,3.30
2022-08-30T00:51:15.634Z,3.05
2022-08-30T00:53:44.648Z,3.65
2022-08-30T00:56:13.408Z,3.65
2022-08-30T00:58:42.296Z,3.15
2022-08-30T01:01:09.521Z,3.22
2022-08-30T01:03:36.707Z,3.60
2022-08-30T01:06:04.661Z,3.50
2022-08-30T01:08:31.459Z,3.42
2022-08-30T01:10:58.141Z,3.22
2022-08-30T01:13:25.342Z,4.00
2022-08-30T01:15:52.047Z,3.15
2022-08-30T01:18:22.163Z,3.45
2022-08-30T01:20:54.033Z,3.72
2022-08-30T01:23:21.624Z,3.35
2022-08-30T01:25:49.916Z,3.45
2022-08-30T01:28:21.551Z,3.45
2022-08-30T01:30:48.600Z,3.58
2022-08-30T01:33:15.245Z,3.78
2022-08-30T01:35:53.762Z,3.70
2022-08-30T01:38:22.396Z,3.88
2022-08-30T01:40:49.772Z,3.50
2022-08-30T01:43:17.578Z,3.35
2022-08-30T01:45:44.314Z,3.45
2022-08-30T01:48:12.793Z,3.55
2022-08-30T01:50:40.733Z,3.50
2022-08-30T01:53:07.883Z,3.70
2022-08-30T01:55:40.304Z,3.78
2022-08-30T01:58:06.787Z,3.25
2022-08-30T02:00:33.400Z,3.72
2022-08-30T02:02:59.853Z,3.83
2022-08-30T02:05:26.312Z,3.63
2022-08-30T02:07:53.774Z,3.78
2022-08-30T02:10:20.925Z,3.70
2022-08-30T02:12:47.576Z,3.80
2022-08-30T02:15:14.374Z,3.70
2022-08-30T02:17:41.623Z,4.20
2022-08-30T02:20:08.367Z,3.50
2022-08-30T02:22:34.997Z,3.70
2022-08-30T02:25:01.506Z,4.53
2022-08-30T02:27:28.061Z,3.30
2022-08-30T02:29:54.602Z,3.90
2022-08-30T02:32:21.044Z,3.65
2022-08-30T02:34:47.505Z,3.80
2022-08-30T02:37:15.484Z,3.58
2022-08-30T02:39:41.967Z,3.80
2022-08-30T02:42:08.427Z,4.20
2022-08-30T02:44:34.880Z,4.03
2022-08-30T02:47:01.583Z,4.10
2022-08-30T02:49:35.458Z,3.95
2022-08-30T02:52:03.387Z,4.28
2022-08-30T02:54:32.958Z,3.92
2022-08-30T02:57:03.078Z,3.67
2022-08-30T02:59:29.524Z,4.13
2022-08-30T03:01:56.084Z,3.80
2022-08-30T03:04:26.377Z,3.63
2022-08-30T03:06:53.395Z,3.92
2022-08-30T03:09:19.832Z,4.30
2022-08-30T03:11:46.336Z,4.07
2022-08-30T03:14:12.754Z,4.07
2022-08-30T03:16:39.674Z,4.18
2022-08-30T03:19:06.262Z,4.22
2022-08-30T03:21:32.770Z,4.07
2022-08-30T03:23:59.271Z,4.10
2022-08-30T03:26:25.767Z,3.60
2022-08-30T03:28:53.145Z,4.13
2022-08-30T03:31:19.734Z,4.35
2022-08-30T03:33:46.351Z,4.30
2022-08-30T03:36:13.001Z,4.40
2022-08-30T03:38:39.520Z,4.25
2022-08-30T03:41:06.075Z,4.03
2022-08-30T03:43:34.095Z,4.35
2022-08-30T03:46:01.034Z,4.05
2022-08-30T03:48:27.845Z,4.50
2022-08-30T03:50:54.436Z,3.95
2022-08-30T03:53:21.010Z,4.10
2022-08-30T03:55:47.454Z,3.70
2022-08-30T03:58:15.816Z,4.25
2022-08-30T04:00:45.939Z,4.20
2022-08-30T04:03:12.586Z,4.28
2022-08-30T04:05:39.118Z,4.13
2022-08-30T04:08:06.288Z,4.07
2022-08-30T04:10:32.899Z,4.00
2022-08-30T04:12:59.453Z,3.63
2022-08-30T04:15:25.975Z,3.70
2022-08-30T04:17:53.793Z,3.83
2022-08-30T04:20:20.329Z,4.13
2022-08-30T04:22:47.485Z,4.07
2022-08-30T04:25:15.454Z,4.30
2022-08-30T04:27:44.276Z,4.00
2022-08-30T04:30:12.573Z,4.85
2022-08-30T04:32:39.646Z,4.57
2022-08-30T04:35:15.128Z,5.22
2022-08-30T04:37:43.019Z,4.60
2022-08-30T04:40:15.543Z,4.50
2022-08-30T04:42:46.666Z,4.72
2022-08-30T04:45:35.562Z,4.30
2022-08-30T04:48:06.882Z,5.15
2022-08-30T04:51:14.141Z,4.72
2022-08-30T04:53:49.323Z,4.50
2022-08-30T04:56:25.775Z,4.70
2022-08-30T04:58:58.463Z,5.20
2022-08-30T05:01:28.301Z,5.10
2022-08-30T05:04:03.398Z,4.55
2022-08-30T05:06:33.052Z,4.90
2022-08-30T05:09:06.174Z,5.20
2022-08-30T05:11:37.362Z,4.85
2022-08-30T05:14:07.739Z,4.85
2022-08-30T05:16:35.116Z,4.75
2022-08-30T05:19:03.146Z,4.82
2022-08-30T05:21:29.717Z,5.40
2022-08-30T05:23:57.097Z,4.95
2022-08-30T05:26:25.531Z,5.28
2022-08-30T05:28:52.134Z,5.20
2022-08-30T05:31:20.341Z,5.00
2022-08-30T05:33:47.373Z,5.43
2022-08-30T05:36:15.611Z,5.90
2022-08-30T05:38:42.405Z,5.63
2022-08-30T05:41:10.828Z,4.88
2022-08-30T05:43:37.609Z,5.85
2022-08-30T05:46:06.379Z,5.53
2022-08-30T05:48:33.434Z,6.22
2022-08-30T05:51:06.306Z,5.30
2022-08-30T05:53:32.965Z,5.60
2022-08-30T05:56:01.645Z,5.13
2022-08-30T05:58:28.552Z,5.47
2022-08-30T06:00:55.063Z,5.03
2022-08-30T06:03:21.611Z,4.82
2022-08-30T06:05:48.206Z,4.93
2022-08-30T06:08:19.826Z,5.30
2022-08-30T06:10:46.365Z,4.63
2022-08-30T06:13:13.426Z,4.80
2022-08-30T06:15:40.186Z,4.68
2022-08-30T06:18:08.303Z,5.43
2022-08-30T06:20:39.411Z,5.03
2022-08-30T06:23:06.193Z,4.65
2022-08-30T06:25:41.356Z,4.65
2022-08-30T06:28:09.590Z,3.70
2022-08-30T06:30:36.824Z,4.28
2022-08-30T06:33:03.301Z,4.18
2022-08-30T06:35:32.636Z,4.30
2022-08-30T06:38:01.816Z,4.07
2022-08-30T06:40:28.409Z,4.55
2022-08-30T06:42:54.957Z,3.55
2022-08-30T06:45:21.487Z,4.03
2022-08-30T06:47:48.876Z,4.00
2022-08-30T06:50:17.638Z,3.97
2022-08-30T06:52:49.116Z,3.80
2022-08-30T06:55:18.662Z,3.47
2022-08-30T06:57:45.548Z,4.13
2022-08-30T07:00:16.624Z,3.50
2022-08-30T07:02:44.688Z,3.47
2022-08-30T07:05:22.652Z,3.42
2022-08-30T07:07:51.768Z,3.83
2022-08-30T07:10:18.420Z,3.72
2022-08-30T07:12:44.888Z,4.18
2022-08-30T07:15:11.893Z,3.65
2022-08-30T07:18:00.258Z,4.07
2022-08-30T07:20:39.819Z,3.47
2022-08-30T07:23:07.746Z,3.50
2022-08-30T07:25:36.024Z,3.35
2022-08-30T07:28:12.434Z,3.92
2022-08-30T07:30:39.150Z,3.70
2022-08-30T07:33:06.481Z,3.60
2022-08-30T07:35:35.479Z,3.53
2022-08-30T07:38:01.989Z,3.67
2022-08-30T07:40:28.565Z,3.75
2022-08-30T07:42:55.380Z,3.88
2022-08-30T07:45:21.895Z,3.47
2022-08-30T07:47:48.739Z,3.40
2022-08-30T07:50:18.733Z,3.55
2022-08-30T07:52:45.265Z,3.80
2022-08-30T07:55:11.813Z,3.28
2022-08-30T07:57:38.300Z,3.13
2022-08-30T08:00:05.287Z,3.47
2022-08-30T08:02:40.570Z,3.33
2022-08-30T08:05:08.225Z,3.40
2022-08-30T08:07:35.236Z,3.13
2022-08-30T08:10:01.789Z,3.60
2022-08-30T08:12:35.071Z,2.97
2022-08-30T08:15:04.181Z,3.15
2022-08-30T08:17:34.643Z,3.90
2022-08-30T08:20:01.118Z,3.25
2022-08-30T08:22:27.686Z,3.03
2022-08-30T08:24:54.376Z,3.10
2022-08-30T08:27:27.208Z,3.13
2022-08-30T08:29:53.834Z,3.05
2022-08-30T08:32:22.578Z,3.00
2022-08-30T08:34:50.097Z,3.00
2022-08-30T08:37:18.447Z,3.08
2022-08-30T08:39:47.608Z,2.60
2022-08-30T08:42:25.216Z,2.47
2022-08-30T08:44:59.833Z,2.97
2022-08-30T08:47:37.393Z,3.10
2022-08-30T08:50:06.429Z,3.08
2022-08-30T08:53:10.975Z,2.65
2022-08-30T08:58:29.469Z,2.60
2022-08-30T09:00:58.091Z,3.60
2022-08-30T09:03:26.309Z,3.20
2022-08-30T09:05:53.592Z,2.75
2022-08-30T09:08:21.591Z,2.53
2022-08-30T09:11:16.573Z,3.03
2022-08-30T09:13:43.275Z,3.20
2022-08-30T09:16:32.387Z,2.65
2022-08-30T09:18:59.067Z,2.60
2022-08-30T09:21:27.470Z,2.42
2022-08-30T09:23:59.707Z,3.58
2022-08-30T09:26:30.890Z,2.85
2022-08-30T09:28:59.182Z,2.53
2022-08-30T09:31:31.691Z,2.78
2022-08-30T09:34:07.517Z,2.92
2022-08-30T09:36:40.238Z,2.72
2022-08-30T09:39:14.799Z,2.45
2022-08-30T09:41:43.067Z,2.95
2022-08-30T09:44:18.739Z,1.90
2022-08-30T09:46:49.965Z,2.75
2022-08-30T09:49:36.260Z,2.13
2022-08-30T09:52:15.061Z,2.40
2022-08-30T09:55:02.360Z,2.40
2022-08-30T09:57:36.267Z,2.67
2022-08-30T10:00:14.014Z,2.47
2022-08-30T10:02:43.590Z,2.50
2022-08-30T10:05:25.286Z,2.60
2022-08-30T10:08:03.864Z,2.78
2022-08-30T10:10:36.475Z,2.83
2022-08-30T10:13:06.153Z,2.78
2022-08-30T10:15:35.871Z,2.83
2022-08-30T10:18:05.404Z,2.63
2022-08-30T10:20:41.734Z,2.35
2022-08-30T10:23:14.700Z,2.40
2022-08-30T10:25:41.441Z,2.53
2022-08-30T10:28:15.982Z,2.60
2022-08-30T10:30:47.696Z,2.55
2022-08-30T10:33:21.127Z,2.17
2022-08-30T10:35:50.597Z,2.65
2022-08-30T10:38:32.623Z,2.28
2022-08-30T10:41:14.017Z,2.40
2022-08-30T10:43:45.438Z,2.47
2022-08-30T10:46:36.210Z,2.20
2022-08-30T10:49:05.541Z,2.67
2022-08-30T10:51:38.806Z,2.47
2022-08-30T10:54:19.328Z,1.88
2022-08-30T10:56:53.201Z,2.45
2022-08-30T10:59:20.693Z,2.53
2022-08-30T11:02:03.034Z,2.00
2022-08-30T11:04:50.174Z,2.15
2022-08-30T11:07:35.075Z,1.85
2022-08-30T11:10:20.276Z,2.58
2022-08-30T11:12:49.540Z,2.15
2022-08-30T11:15:21.373Z,2.03
2022-08-30T11:17:51.015Z,2.45
2022-08-30T11:20:36.583Z,2.70
2022-08-30T11:23:18.627Z,2.15
2022-08-30T11:25:57.945Z,1.90
2022-08-30T11:28:36.957Z,2.38
2022-08-30T11:31:10.571Z,2.50
2022-08-30T11:33:46.218Z,2.80
2022-08-30T11:36:37.541Z,2.17
2022-08-30T11:39:10.645Z,2.53
2022-08-30T11:41:42.524Z,2.00
2022-08-30T11:44:21.881Z,2.50
2022-08-30T11:46:49.667Z,2.40
2022-08-30T11:49:19.109Z,2.10
2022-08-30T11:52:08.518Z,2.20
2022-08-30T11:54:40.515Z,2.63
2022-08-30T11:57:17.918Z,2.38
2022-08-30T11:59:56.990Z,2.22
2022-08-30T12:02:41.996Z,2.22
2022-08-30T12:05:09.128Z,2.35
2022-08-30T12:07:54.238Z,2.20
2022-08-30T12:10:23.306Z,2.28
2022-08-30T12:12:52.316Z,2.25
2022-08-30T12:15:42.044Z,2.25
2022-08-30T12:18:28.778Z,1.90
2022-08-30T12:21:15.660Z,2.58
2022-08-30T12:23:48.341Z,2.10
2022-08-30T12:26:17.957Z,2.08
2022-08-30T12:28:49.029Z,2.10
2022-08-30T12:31:19.179Z,2.20
2022-08-30T12:33:50.776Z,2.03
2022-08-30T12:36:37.022Z,2.25
2022-08-30T12:39:21.776Z,2.42
2022-08-30T12:41:48.361Z,2.08
2022-08-30T12:44:20.659Z,2.50
2022-08-30T12:46:49.206Z,2.33
2022-08-30T12:49:20.799Z,2.40
2022-08-30T12:51:47.337Z,2.10
2022-08-30T12:54:14.667Z,2.25
2022-08-30T12:56:52.483Z,2.10
2022-08-30T12:59:37.567Z,2.45
2022-08-30T13:02:20.223Z,2.40
2022-08-30T13:04:48.340Z,2.08
2022-08-30T13:07:45.368Z,2.10
2022-08-30T13:10:19.829Z,2.70
2022-08-30T13:13:00.834Z,2.38
2022-08-30T13:15:32.842Z,2.10
2022-08-30T13:18:27.638Z,2.20
2022-08-30T13:21:10.138Z,2.40
2022-08-30T13:23:36.678Z,1.90
2022-08-30T13:26:05.909Z,2.28
2022-08-30T13:28:42.550Z,2.20
2022-08-30T13:31:09.683Z,2.08
2022-08-30T13:33:36.748Z,2.00
2022-08-30T13:36:03.300Z,2.22
2022-08-30T13:38:29.773Z,2.30
2022-08-30T13:40:56.420Z,2.25
2022-08-30T13:43:23.010Z,2.60
2022-08-30T13:45:49.537Z,2.20
2022-08-30T13:48:24.852Z,2.10
2022-08-30T13:50:53.177Z,2.28
2022-08-30T13:53:51.786Z,2.20
2022-08-30T13:56:06.591Z,2.15
2022-08-30T13:58:33.811Z,2.35
2022-08-30T14:01:00.278Z,2.20
2022-08-30T14:03:26.947Z,2.38
2022-08-30T14:06:15.726Z,2.03
2022-08-30T14:08:48.954Z,2.15
2022-08-30T14:11:19.297Z,2.25
2022-08-30T14:16:34.155Z,2.42
2022-08-30T14:19:01.722Z,2.10
2022-08-30T14:21:28.401Z,2.10
2022-08-30T14:23:56.484Z,2.17
2022-08-30T14:26:26.293Z,2.13
2022-08-30T14:28:58.875Z,2.30
2022-08-30T14:31:25.460Z,2.03
2022-08-30T14:33:52.036Z,2.22
2022-08-30T14:36:18.559Z,2.30
2022-08-30T14:38:45.241Z,2.35
2022-08-30T14:41:11.780Z,2.50
2022-08-30T14:43:40.607Z,2.40
2022-08-30T14:46:07.787Z,2.33
2022-08-30T14:48:35.182Z,2.42
2022-08-30T14:51:02.250Z,2.70
2022-08-30T14:53:28.693Z,2.25
2022-08-30T14:55:55.211Z,2.35
2022-08-30T14:58:21.668Z,2.50
2022-08-30T15:00:52.691Z,2.60
2022-08-30T15:03:19.582Z,2.45
2022-08-30T15:05:52.867Z,2.63
2022-08-30T15:08:20.022Z,2.42
2022-08-30T15:10:47.433Z,2.72
2022-08-30T15:13:14.240Z,2.55
2022-08-30T15:15:42.096Z,2.35
2022-08-30T15:18:09.131Z,2.50
2022-08-30T15:20:35.610Z,2.58
2022-08-30T15:23:02.201Z,2.83
2022-08-30T15:25:28.703Z,2.60
2022-08-30T15:27:55.219Z,2.58
2022-08-30T15:30:22.289Z,2.70
2022-08-30T15:32:48.866Z,2.55
2022-08-30T15:35:15.391Z,2.60
2022-08-30T15:37:43.029Z,2.35
2022-08-30T15:40:10.029Z,2.55
2022-08-30T15:42:36.620Z,2.35
2022-08-30T15:45:03.388Z,2.13
2022-08-30T15:47:30.552Z,2.53
2022-08-30T15:49:58.817Z,2.60
2022-08-30T15:52:25.490Z,2.40
2022-08-30T15:54:53.574Z,2.33
2022-08-30T15:57:21.189Z,2.30
2022-08-30T15:59:47.689Z,2.40
2022-08-30T16:02:14.831Z,2.20
2022-08-30T16:04:43.406Z,2.60
2022-08-30T16:07:10.147Z,2.30
2022-08-30T16:09:38.048Z,2.35
2022-08-30T16:12:06.096Z,2.10
2022-08-30T16:14:33.190Z,2.35
2022-08-30T16:17:00.188Z,2.47
2022-08-30T16:19:26.753Z,2.28
2022-08-30T16:21:53.355Z,2.58
2022-08-30T16:24:22.375Z,2.45
2022-08-30T16:26:50.156Z,2.40
2022-08-30T16:29:16.678Z,2.67
2022-08-30T16:31:44.903Z,2.13
2022-08-30T16:34:18.692Z,1.92
2022-08-30T16:36:45.898Z,2.17
2022-08-30T16:39:13.427Z,2.38
2022-08-30T16:41:40.929Z,2.10
2022-08-30T16:44:09.771Z,2.00
2022-08-30T16:46:41.314Z,2.28
2022-08-30T16:49:13.888Z,2.20
2022-08-30T16:51:40.730Z,2.45
2022-08-30T16:54:09.035Z,2.25
2022-08-30T16:56:38.844Z,2.08
2022-08-30T16:59:10.960Z,2.58
2022-08-30T17:01:42.597Z,2.00
2022-08-30T17:04:10.319Z,2.22
2022-08-30T17:06:37.148Z,2.45
2022-08-30T17:09:04.887Z,1.80
2022-08-30T17:11:31.679Z,2.40
2022-08-30T17:13:58.256Z,2.25
2022-08-30T17:16:27.991Z,1.90
2022-08-30T17:19:00.574Z,1.95
2022-08-30T17:21:28.650Z,1.98
2022-08-30T17:23:56.777Z,1.88
2022-08-30T17:26:28.523Z,1.77
2022-08-30T17:28:54.984Z,1.83
2022-08-30T17:31:22.724Z,1.80
2022-08-30T17:33:50.101Z,1.95
2022-08-30T17:36:16.741Z,1.77
2022-08-30T17:38:45.129Z,1.95
2022-08-30T17:41:12.824Z,1.95
2022-08-30T17:43:39.460Z,2.05
2022-08-30T17:46:10.744Z,1.70
2022-08-30T17:48:37.446Z,1.80
2022-08-30T17:51:04.084Z,1.85
2022-08-30T17:53:30.543Z,1.70
2022-08-30T17:55:58.710Z,1.90
2022-08-30T17:58:25.246Z,1.88
2022-08-30T18:00:54.061Z,1.52
2022-08-30T18:03:20.632Z,2.00
2022-08-30T18:05:47.191Z,1.70
2022-08-30T18:08:13.770Z,1.83
2022-08-30T18:10:40.434Z,2.10
2022-08-30T18:13:06.916Z,1.77
2022-08-30T18:15:33.968Z,1.70
2022-08-30T18:18:00.642Z,1.30
2022-08-30T18:20:27.379Z,1.75
2022-08-30T18:22:57.792Z,2.15
2022-08-30T18:25:24.244Z,1.55
2022-08-30T18:27:58.198Z,1.55
2022-08-30T18:30:31.185Z,1.67
2022-08-30T18:33:00.778Z,1.52
2022-08-30T18:35:27.365Z,1.83
2022-08-30T18:37:53.855Z,1.50
2022-08-30T18:40:20.628Z,1.80
2022-08-30T18:42:47.629Z,1.67
2022-08-30T18:45:15.227Z,1.88
2022-08-30T18:47:42.003Z,1.60
2022-08-30T18:50:08.568Z,2.05
2022-08-30T18:52:35.296Z,1.60
2022-08-30T18:55:02.210Z,1.42
2022-08-30T18:57:28.680Z,1.30
2022-08-30T18:59:57.555Z,1.42
2022-08-30T19:02:27.486Z,1.27
2022-08-30T19:04:54.483Z,1.40
2022-08-30T19:07:21.515Z,1.30
2022-08-30T19:09:53.822Z,1.75
2022-08-30T19:12:20.380Z,1.20
2022-08-30T19:14:47.540Z,1.40
2022-08-30T19:17:14.073Z,1.52
2022-08-30T19:19:49.184Z,1.40
2022-08-30T19:22:19.205Z,1.88
2022-08-30T19:24:45.856Z,1.58
2022-08-30T19:27:12.294Z,1.48
2022-08-30T19:29:39.269Z,1.60
2022-08-30T19:32:05.881Z,1.85
2022-08-30T19:34:32.383Z,1.77
2022-08-30T19:36:59.080Z,1.70
2022-08-30T19:39:26.261Z,1.60
2022-08-30T19:41:53.407Z,1.60
2022-08-30T19:44:19.958Z,1.80
2022-08-30T19:46:46.469Z,1.70
2022-08-30T19:49:12.949Z,1.65
2022-08-30T19:51:39.726Z,1.80
2022-08-30T19:54:13.133Z,1.90
2022-08-30T19:56:39.672Z,2.00
2022-08-30T19:59:06.306Z,1.65
2022-08-30T20:01:34.025Z,2.13
2022-08-30T20:04:02.072Z,2.13
2022-08-30T20:06:28.917Z,2.03
2022-08-30T20:08:58.103Z,2.03
2022-08-30T20:11:27.415Z,2.17
2022-08-30T20:13:53.991Z,1.95
2022-08-30T20:16:20.961Z,2.25
2022-08-30T20:18:59.576Z,2.03
2022-08-30T20:21:26.044Z,1.60
2022-08-30T20:23:52.525Z,2.22
2022-08-30T20:26:19.023Z,2.42
2022-08-30T20:28:45.538Z,2.15
2022-08-30T20:31:12.986Z,1.90
2022-08-30T20:33:41.012Z,2.47
2022-08-30T20:36:09.622Z,1.95
2022-08-30T20:38:36.104Z,2.20
2022-08-30T20:41:08.053Z,2.10
2022-08-30T20:43:34.597Z,2.10
2022-08-30T20:46:06.405Z,2.10
2022-08-30T20:48:33.297Z,2.28
2022-08-30T20:51:01.776Z,2.08
2022-08-30T20:53:28.408Z,1.95
2022-08-30T20:55:55.646Z,2.33
2022-08-30T20:58:22.096Z,1.75
2022-08-30T21:00:52.356Z,2.22
2022-08-30T21:03:28.011Z,2.05
2022-08-30T21:05:54.928Z,1.95
2022-08-30T21:08:21.464Z,1.90
2022-08-30T21:10:47.969Z,2.20
2022-08-30T21:13:14.507Z,1.63
2022-08-30T21:15:45.629Z,2.33
2022-08-30T21:18:12.638Z,2.20
2022-08-30T21:20:39.426Z,2.00
2022-08-30T21:23:05.902Z,1.60
2022-08-30T21:25:34.054Z,2.08
2022-08-30T21:28:00.541Z,1.98
2022-08-30T21:30:27.110Z,1.80
2022-08-30T21:32:53.634Z,2.13
2022-08-30T21:35:38.839Z,1.60
2022-08-30T21:38:07.382Z,1.70
2022-08-30T21:40:35.186Z,2.00
2022-08-30T21:43:05.752Z,1.80
2022-08-30T21:45:32.725Z,2.15
2022-08-30T21:47:59.350Z,1.38
2022-08-30T21:50:27.874Z,2.03
2022-08-30T21:52:54.573Z,1.98
2022-08-30T21:55:21.201Z,1.92
2022-08-30T21:57:47.692Z,1.88
2022-08-30T22:00:20.635Z,2.17
2022-08-30T22:02:49.259Z,1.70
2022-08-30T22:05:19.821Z,1.63
2022-08-30T22:07:46.316Z,2.03
2022-08-30T22:10:12.855Z,1.70
2022-08-30T22:12:39.412Z,1.77
2022-08-30T22:15:09.028Z,1.90
2022-08-30T22:17:35.506Z,1.65
2022-08-30T22:20:02.042Z,1.80
2022-08-30T22:22:28.501Z,2.00
2022-08-30T22:24:55.011Z,1.70
2022-08-30T22:27:21.570Z,2.00
2022-08-30T22:29:48.103Z,1.70
2022-08-30T22:32:14.662Z,1.80
2022-08-30T22:34:41.293Z,2.13
2022-08-30T22:37:07.871Z,1.80
2022-08-30T22:39:34.473Z,1.80
2022-08-30T22:42:01.027Z,1.67
2022-08-30T22:44:27.510Z,2.10
2022-08-30T22:46:53.945Z,1.80
2022-08-30T22:49:20.570Z,1.83
2022-08-30T22:51:47.030Z,2.10
2022-08-30T22:54:13.488Z,1.88
2022-08-30T22:56:40.241Z,2.08
2022-08-30T22:59:07.024Z,1.63
2022-08-30T23:01:36.775Z,1.45
2022-08-30T23:04:07.531Z,1.88
2022-08-30T23:06:34.494Z,1.95
2022-08-30T23:09:06.432Z,1.80
2022-08-30T23:11:35.764Z,1.80
2022-08-30T23:14:05.765Z,1.50
2022-08-30T23:16:33.163Z,1.80
2022-08-30T23:19:04.727Z,1.80
2022-08-30T23:21:44.353Z,1.92
2022-08-30T23:24:30.436Z,2.08
2022-08-30T23:27:17.081Z,1.90
2022-08-30T23:30:12.413Z,1.92
2022-08-30T23:33:00.384Z,1.50
2022-08-30T23:35:47.511Z,2.25
2022-08-30T23:38:35.180Z,1.90
2022-08-30T23:41:29.339Z,1.60
2022-08-30T23:44:19.644Z,1.83
2022-08-30T23:47:07.986Z,2.10
2022-08-30T23:49:53.915Z,3.17
2022-08-30T23:52:41.491Z,4.38
2022-08-30T23:55:26.952Z,7.20
2022-08-30T23:58:13.876Z,7.80
